• °C
  • Pobieranie danych...
wx


SEKCJA WYDRUKÓW, pokaż »

METAR EPBY 230900Z 30014KT 9999 FEW022 SCT026CB BKN048 08/01 Q1019=

METAR EPGD 230900Z 31019KT 9999 FEW048 08/M05 Q1017 =

METAR EPKK 230900Z 28010KT 9999 SCT020TCU SCT067 07/02 Q1022 =

METAR EPKT 230900Z 25010KT 9999 -SHRA FEW009 SCT036CB BKN042 06/00
Q1021 =

METAR EPLB 230900Z 32010KT 9999 SCT042 09/M00 Q1019 =

METAR EPLL 230900Z 26015KT 240V300 9999 FEW028TCU SCT037 08/M00 Q1020
=

METAR EPMO 230900Z 25018KT 230V290 9999 SCT045TCU 10/M01 Q1018 =

METAR EPPO 230900Z 28014KT 9999 BKN021 08/02 Q1021 =

METAR EPRA 230900Z 29010KT 9999 SCT035 08/M02 Q1020=

METAR EPRZ 230900Z 25011KT 220V280 9999 BKN033 08/00 Q1020 =

METAR EPSC 230900Z 30018KT 9999 SCT021 BKN024 07/02 Q1021 =

METAR EPSY 230900Z 26011G22KT 220V310 CAVOK 07/M01 Q1016=

METAR EPWA 230900Z 28015KT 9999 SCT040 09/M01 Q1018 NOSIG=

METAR EPWR 230900Z 27013KT 9999 -SHRA SCT020CB SCT025 06/03 Q1023 =

METAR EPZG 230900Z 27009KT 240V310 9999 SCT024 BKN044 07/02 Q1023 =



Serwisy IMGW-PIB